createdAt,value
2018-02-25T00:00:54.510Z,0
2018-02-25T00:02:04.219Z,0
2018-02-25T00:03:13.921Z,0
2018-02-25T00:04:23.886Z,0
2018-02-25T00:05:33.607Z,0
2018-02-25T00:06:43.305Z,0
2018-02-25T00:07:53.271Z,0
2018-02-25T00:09:03.235Z,0
2018-02-25T00:10:13.192Z,0
2018-02-25T00:11:23.163Z,0
2018-02-25T00:12:32.874Z,0
2018-02-25T00:13:42.563Z,0
2018-02-25T00:14:52.514Z,0
2018-02-25T00:16:02.216Z,0
2018-02-25T00:17:11.904Z,0
2018-02-25T00:18:21.870Z,0
2018-02-25T00:19:31.837Z,0
2018-02-25T00:20:41.792Z,0
2018-02-25T00:21:51.815Z,0
2018-02-25T00:23:01.753Z,0
2018-02-25T00:24:11.705Z,0
2018-02-25T00:25:21.671Z,0
2018-02-25T00:26:31.625Z,0
2018-02-25T00:27:41.077Z,0
2018-02-25T00:28:51.022Z,0
2018-02-25T00:30:00.714Z,0
2018-02-25T00:31:09.896Z,0
2018-02-25T00:32:19.846Z,0
2018-02-25T00:33:29.560Z,0
2018-02-25T00:34:39.519Z,0
2018-02-25T00:35:49.224Z,0
2018-02-25T00:36:59.183Z,0
2018-02-25T00:38:09.149Z,0
2018-02-25T00:39:18.834Z,0
2018-02-25T00:40:28.282Z,0
2018-02-25T00:41:38.238Z,0
2018-02-25T00:42:47.939Z,0
2018-02-25T00:43:57.631Z,0
2018-02-25T00:45:07.339Z,0
2018-02-25T00:46:17.314Z,0
2018-02-25T00:47:26.750Z,0
2018-02-25T00:48:36.443Z,0
2018-02-25T00:49:46.135Z,0
2018-02-25T00:50:56.085Z,0
2018-02-25T00:52:05.782Z,0
2018-02-25T00:53:14.967Z,0
2018-02-25T00:54:24.672Z,0
2018-02-25T00:55:34.381Z,0
2018-02-25T00:56:44.067Z,0
2018-02-25T00:57:53.767Z,0
2018-02-25T00:59:03.464Z,0
2018-02-25T01:00:13.184Z,0
2018-02-25T01:01:22.881Z,0
2018-02-25T01:02:32.566Z,0
2018-02-25T01:03:42.008Z,0
2018-02-25T01:04:51.700Z,0
2018-02-25T01:06:01.655Z,0
2018-02-25T01:07:11.410Z,0
2018-02-25T01:08:21.097Z,0
2018-02-25T01:09:31.052Z,0
2018-02-25T01:10:40.737Z,0
2018-02-25T01:11:50.183Z,0
2018-02-25T01:12:59.884Z,0
2018-02-25T01:14:09.580Z,0
2018-02-25T01:15:19.557Z,0
2018-02-25T01:16:29.507Z,0
2018-02-25T01:17:39.200Z,0
2018-02-25T01:18:48.634Z,0
2018-02-25T01:19:58.591Z,0
2018-02-25T01:21:08.540Z,0
2018-02-25T01:22:17.981Z,0
2018-02-25T01:23:27.925Z,0
2018-02-25T01:24:37.621Z,0
2018-02-25T01:25:47.564Z,0
2018-02-25T01:26:56.746Z,0
2018-02-25T01:28:06.445Z,0
2018-02-25T01:29:15.876Z,0
2018-02-25T01:30:25.588Z,0
2018-02-25T01:31:35.560Z,0
2018-02-25T01:32:44.983Z,0
2018-02-25T01:33:54.161Z,0
2018-02-25T01:35:03.853Z,0
2018-02-25T01:36:13.807Z,0
2018-02-25T01:37:23.501Z,0
2018-02-25T01:38:33.187Z,0
2018-02-25T01:39:43.131Z,0
2018-02-25T01:40:53.091Z,0
2018-02-25T01:42:02.531Z,0
2018-02-25T01:43:11.711Z,0
2018-02-25T01:44:21.664Z,0
2018-02-25T01:45:31.627Z,0
2018-02-25T01:46:41.074Z,0
2018-02-25T01:47:51.026Z,0
2018-02-25T01:49:00.726Z,0
2018-02-25T01:50:10.694Z,0
2018-02-25T01:51:20.392Z,0
2018-02-25T01:52:29.820Z,0
2018-02-25T01:53:39.775Z,0
2018-02-25T01:54:49.723Z,0
2018-02-25T01:55:59.408Z,0
2018-02-25T01:57:09.100Z,0
2018-02-25T01:58:18.537Z,0
2018-02-25T01:59:28.633Z,0
2018-02-25T02:00:38.335Z,0
2018-02-25T02:01:48.443Z,0
2018-02-25T02:02:58.403Z,0
2018-02-25T02:04:08.105Z,0
2018-02-25T02:05:18.073Z,0
2018-02-25T02:06:27.520Z,0
2018-02-25T02:07:37.209Z,0
2018-02-25T02:08:46.894Z,0
2018-02-25T02:09:56.589Z,0
2018-02-25T02:11:05.767Z,0
2018-02-25T02:12:15.202Z,0
2018-02-25T02:13:24.914Z,0
2018-02-25T02:14:34.611Z,0
2018-02-25T02:15:44.559Z,0
2018-02-25T02:16:54.516Z,0
2018-02-25T02:18:04.209Z,0
2018-02-25T02:19:13.909Z,0
2018-02-25T02:20:23.874Z,0
2018-02-25T02:21:33.825Z,0
2018-02-25T02:22:43.772Z,0
2018-02-25T02:23:53.772Z,0
2018-02-25T02:25:03.713Z,0
2018-02-25T02:26:13.156Z,0
2018-02-25T02:27:22.845Z,0
2018-02-25T02:28:32.277Z,0
2018-02-25T02:29:41.962Z,0
2018-02-25T02:30:51.679Z,0
2018-02-25T02:32:01.659Z,0
2018-02-25T02:33:11.370Z,0
2018-02-25T02:34:21.336Z,0
2018-02-25T02:35:31.028Z,0
2018-02-25T02:36:40.569Z,0
2018-02-25T02:37:50.538Z,0
2018-02-25T02:38:59.990Z,0
2018-02-25T02:40:09.957Z,0
2018-02-25T02:41:19.647Z,0
2018-02-25T02:42:29.609Z,0
2018-02-25T02:43:39.413Z,0
2018-02-25T02:44:49.386Z,0
2018-02-25T02:45:59.095Z,0
2018-02-25T02:47:08.271Z,0
2018-02-25T02:48:18.228Z,0
2018-02-25T02:49:28.184Z,0
2018-02-25T02:50:37.615Z,0
2018-02-25T02:51:47.579Z,0
2018-02-25T02:52:57.531Z,0
2018-02-25T02:54:07.238Z,0
2018-02-25T02:55:17.225Z,0
2018-02-25T02:56:27.188Z,0
2018-02-25T02:57:36.875Z,0
2018-02-25T02:58:46.328Z,0
2018-02-25T02:59:56.029Z,0
2018-02-25T03:01:05.471Z,0
2018-02-25T03:02:15.192Z,0
2018-02-25T03:03:24.898Z,0
2018-02-25T03:04:34.893Z,0
2018-02-25T03:05:44.854Z,0
2018-02-25T03:06:54.808Z,0
2018-02-25T03:08:04.781Z,0
2018-02-25T03:09:14.213Z,0
2018-02-25T03:10:24.164Z,0
2018-02-25T03:11:34.112Z,0
2018-02-25T03:12:44.052Z,0
2018-02-25T03:13:53.224Z,0
2018-02-25T03:15:02.924Z,0
2018-02-25T03:16:12.884Z,0
2018-02-25T03:17:22.838Z,0
2018-02-25T03:18:32.528Z,0
2018-02-25T03:19:41.955Z,0
2018-02-25T03:20:51.904Z,0
2018-02-25T03:22:01.593Z,0
2018-02-25T03:23:11.273Z,0
2018-02-25T03:24:21.223Z,0
2018-02-25T03:25:31.230Z,0
2018-02-25T03:26:40.665Z,0
2018-02-25T03:27:50.363Z,0
2018-02-25T03:29:00.337Z,0
2018-02-25T03:30:09.789Z,0
2018-02-25T03:31:19.245Z,0
2018-02-25T03:32:28.951Z,0
2018-02-25T03:33:38.912Z,0
2018-02-25T03:34:48.347Z,0
2018-02-25T03:35:58.043Z,0
2018-02-25T03:37:07.736Z,0
2018-02-25T03:38:17.696Z,0
2018-02-25T03:39:27.378Z,0
2018-02-25T03:40:37.320Z,0
2018-02-25T03:41:47.274Z,0
2018-02-25T03:42:56.970Z,0
2018-02-25T03:44:06.657Z,0
2018-02-25T03:45:16.610Z,0
2018-02-25T03:46:26.048Z,0
2018-02-25T03:47:35.994Z,0
2018-02-25T03:48:45.681Z,0
2018-02-25T03:49:55.635Z,0
2018-02-25T03:51:04.811Z,0
2018-02-25T03:52:14.233Z,0
2018-02-25T03:53:24.183Z,0
2018-02-25T03:54:33.863Z,0
2018-02-25T03:55:43.820Z,0
2018-02-25T03:56:53.918Z,0
2018-02-25T03:58:03.854Z,0
2018-02-25T03:59:13.292Z,0
2018-02-25T04:00:22.972Z,0
2018-02-25T04:01:32.917Z,0
2018-02-25T04:02:42.859Z,0
2018-02-25T04:03:52.860Z,0
2018-02-25T04:05:02.821Z,0
2018-02-25T04:06:12.506Z,0
2018-02-25T04:07:22.193Z,0
2018-02-25T04:08:32.153Z,0
2018-02-25T04:09:42.118Z,0
2018-02-25T04:10:52.087Z,0
2018-02-25T04:12:01.774Z,0
2018-02-25T04:13:11.727Z,0
2018-02-25T04:14:21.418Z,0
2018-02-25T04:15:31.374Z,0
2018-02-25T04:16:41.332Z,0
2018-02-25T04:17:51.016Z,0
2018-02-25T04:19:00.719Z,0
2018-02-25T04:20:10.667Z,0
2018-02-25T04:21:20.608Z,0
2018-02-25T04:22:30.556Z,0
2018-02-25T04:23:40.235Z,0
2018-02-25T04:24:49.928Z,0
2018-02-25T04:25:59.623Z,0
2018-02-25T04:27:09.306Z,0
2018-02-25T04:28:19.256Z,0
2018-02-25T04:29:28.948Z,0
2018-02-25T04:30:38.637Z,0
2018-02-25T04:31:48.335Z,0
2018-02-25T04:32:58.047Z,0
2018-02-25T04:34:07.754Z,0
2018-02-25T04:35:17.439Z,0
2018-02-25T04:36:27.385Z,0
2018-02-25T04:37:37.338Z,0
2018-02-25T04:38:47.274Z,0
2018-02-25T04:39:57.226Z,0
2018-02-25T04:41:07.175Z,0
2018-02-25T04:42:17.139Z,0
2018-02-25T04:43:27.094Z,0
2018-02-25T04:44:37.045Z,0
2018-02-25T04:45:46.491Z,0
2018-02-25T04:46:56.182Z,0
2018-02-25T04:48:05.885Z,0
2018-02-25T04:49:15.321Z,0
2018-02-25T04:50:25.004Z,0
2018-02-25T04:51:34.946Z,0
2018-02-25T04:52:44.370Z,0
2018-02-25T04:53:54.058Z,0
2018-02-25T04:55:04.259Z,0
2018-02-25T04:56:13.943Z,0
2018-02-25T04:57:23.893Z,0
2018-02-25T04:58:33.587Z,0
2018-02-25T04:59:43.301Z,0
2018-02-25T05:00:52.729Z,0
2018-02-25T05:02:02.422Z,0
2018-02-25T05:03:11.846Z,0
2018-02-25T05:04:21.558Z,0
2018-02-25T05:05:31.258Z,0
2018-02-25T05:06:41.225Z,0
2018-02-25T05:07:50.658Z,0
2018-02-25T05:09:00.603Z,0
2018-02-25T05:10:10.566Z,0
2018-02-25T05:11:20.274Z,0
2018-02-25T05:12:30.221Z,0
2018-02-25T05:13:40.201Z,0
2018-02-25T05:14:50.224Z,0
2018-02-25T05:16:00.421Z,0
2018-02-25T05:17:10.107Z,0
2018-02-25T05:18:19.793Z,0
2018-02-25T05:19:29.479Z,0
2018-02-25T05:20:39.164Z,0
2018-02-25T05:21:48.586Z,0
2018-02-25T05:22:58.274Z,0
2018-02-25T05:24:07.987Z,0
2018-02-25T05:25:17.936Z,0
2018-02-25T05:26:27.634Z,4
2018-02-25T05:27:37.320Z,4
2018-02-25T05:28:47.286Z,0
2018-02-25T05:29:57.242Z,4
2018-02-25T05:31:07.202Z,4
2018-02-25T05:32:17.148Z,4
2018-02-25T05:33:26.836Z,8
2018-02-25T05:34:36.521Z,8
2018-02-25T05:35:46.218Z,8
2018-02-25T05:36:56.160Z,8
2018-02-25T05:38:06.119Z,12
2018-02-25T05:39:15.542Z,16
2018-02-25T05:40:25.492Z,20
2018-02-25T05:41:35.435Z,24
2018-02-25T05:42:45.375Z,28
2018-02-25T05:43:55.321Z,36
2018-02-25T05:45:05.017Z,44
2018-02-25T05:46:14.975Z,52
2018-02-25T05:47:24.916Z,64
2018-02-25T05:48:34.895Z,76
2018-02-25T05:49:44.850Z,96
2018-02-25T05:50:54.804Z,112
2018-02-25T05:52:04.758Z,132
2018-02-25T05:53:14.452Z,152
2018-02-25T05:54:23.623Z,176
2018-02-25T05:55:33.573Z,204
2018-02-25T05:56:43.293Z,236
2018-02-25T05:57:53.258Z,276
2018-02-25T05:59:02.960Z,312
2018-02-25T06:00:12.912Z,356
2018-02-25T06:01:22.853Z,400
2018-02-25T06:02:32.543Z,452
2018-02-25T06:03:42.492Z,508
2018-02-25T06:04:52.436Z,564
2018-02-25T06:06:02.384Z,624
2018-02-25T06:07:12.091Z,696
2018-02-25T06:08:22.052Z,764
2018-02-25T06:09:31.741Z,840
2018-02-25T06:10:41.685Z,916
2018-02-25T06:11:51.381Z,996
2018-02-25T06:13:00.811Z,1084
2018-02-25T06:14:10.753Z,1168
2018-02-25T06:15:20.790Z,1256
2018-02-25T06:16:30.747Z,1352
2018-02-25T06:17:40.693Z,1448
2018-02-25T06:18:50.651Z,1544
2018-02-25T06:20:00.607Z,1640
2018-02-25T06:21:10.289Z,1736
2018-02-25T06:22:19.988Z,1840
2018-02-25T06:23:29.430Z,1944
2018-02-25T06:24:39.399Z,2040
2018-02-25T06:25:49.349Z,2144
2018-02-25T06:26:59.041Z,2244
2018-02-25T06:28:08.984Z,2360
2018-02-25T06:29:18.937Z,2468
2018-02-25T06:30:28.891Z,2544
2018-02-25T06:31:38.840Z,2648
2018-02-25T06:32:48.796Z,2780
2018-02-25T06:33:58.746Z,2864
2018-02-25T06:35:08.455Z,2980
2018-02-25T06:36:18.404Z,3048
2018-02-25T06:37:28.353Z,3148
2018-02-25T06:38:38.317Z,3276
2018-02-25T06:39:48.277Z,3376
2018-02-25T06:40:58.218Z,3444
2018-02-25T06:42:08.173Z,3560
2018-02-25T06:43:18.143Z,3680
2018-02-25T06:44:28.110Z,3808
2018-02-25T06:45:38.061Z,3832
2018-02-25T06:46:47.535Z,3920
2018-02-25T06:47:57.605Z,4012
2018-02-25T06:49:07.303Z,4120
2018-02-25T06:50:16.734Z,4312
2018-02-25T06:51:26.696Z,4276
2018-02-25T06:52:36.127Z,4364
2018-02-25T06:53:46.088Z,4452
2018-02-25T06:54:56.037Z,4628
2018-02-25T06:56:05.199Z,4656
2018-02-25T06:57:14.891Z,4704
2018-02-25T06:58:24.319Z,4840
2018-02-25T06:59:34.038Z,4968
2018-02-25T07:00:43.802Z,4944
2018-02-25T07:01:53.747Z,5020
2018-02-25T07:03:03.430Z,5104
2018-02-25T07:04:12.859Z,5220
2018-02-25T07:05:22.814Z,5336
2018-02-25T07:06:32.503Z,5464
2018-02-25T07:07:42.724Z,5400
2018-02-25T07:08:52.414Z,5580
2018-02-25T07:10:02.375Z,5660
2018-02-25T07:11:12.473Z,5640
2018-02-25T07:12:22.432Z,5760
2018-02-25T07:13:32.387Z,5940
2018-02-25T07:14:42.085Z,6124
2018-02-25T07:15:51.780Z,6076
2018-02-25T07:17:01.204Z,6028
2018-02-25T07:18:10.906Z,6108
2018-02-25T07:19:20.608Z,6272
2018-02-25T07:20:29.782Z,6336
2018-02-25T07:21:39.469Z,6312
2018-02-25T07:22:49.180Z,6400
2018-02-25T07:23:58.877Z,6472
2018-02-25T07:25:08.842Z,6732
2018-02-25T07:26:18.756Z,6660
2018-02-25T07:27:27.919Z,6740
2018-02-25T07:28:37.348Z,6804
2018-02-25T07:29:46.783Z,7320
2018-02-25T07:30:56.730Z,7120
2018-02-25T07:32:06.434Z,7064
2018-02-25T07:33:16.181Z,7144
2018-02-25T07:34:25.894Z,7220
2018-02-25T07:35:35.584Z,7356
2018-02-25T07:36:45.331Z,7456
2018-02-25T07:37:54.777Z,7704
2018-02-25T07:39:04.463Z,7536
2018-02-25T07:40:14.409Z,7764
2018-02-25T07:41:24.377Z,8044
2018-02-25T07:42:34.506Z,7788
2018-02-25T07:43:43.947Z,7888
2018-02-25T07:44:53.654Z,7976
2018-02-25T07:46:03.595Z,8480
2018-02-25T07:47:13.539Z,8400
2018-02-25T07:48:23.557Z,8312
2018-02-25T07:49:33.248Z,8356
2018-02-25T07:50:43.223Z,8588
2018-02-25T07:51:53.196Z,8716
2018-02-25T07:53:03.171Z,8616
2018-02-25T07:54:13.124Z,8916
2018-02-25T07:55:22.828Z,8848
2018-02-25T07:56:32.771Z,9464
2018-02-25T07:57:42.487Z,9216
2018-02-25T07:58:52.468Z,9140
2018-02-25T08:00:02.424Z,9252
2018-02-25T08:01:12.126Z,9512
2018-02-25T08:02:22.148Z,9792
2018-02-25T08:03:31.926Z,9512
2018-02-25T08:04:41.624Z,9600
2018-02-25T08:05:51.317Z,9648
2018-02-25T08:07:01.003Z,9872
2018-02-25T08:08:10.955Z,9928
2018-02-25T08:09:20.676Z,9760
2018-02-25T08:10:30.643Z,10520
2018-02-25T08:11:40.350Z,9964
2018-02-25T08:12:50.056Z,10236
2018-02-25T08:13:59.499Z,11540
2018-02-25T08:15:09.472Z,16032
2018-02-25T08:16:18.902Z,17312
2018-02-25T08:17:28.337Z,16800
2018-02-25T08:18:38.296Z,16100
2018-02-25T08:19:48.260Z,18016
2018-02-25T08:20:58.212Z,18336
2018-02-25T08:22:08.421Z,19200
2018-02-25T08:23:18.128Z,19648
2018-02-25T08:24:27.657Z,20704
2018-02-25T08:25:37.608Z,19872
2018-02-25T08:26:47.328Z,19488
2018-02-25T08:27:57.020Z,19232
2018-02-25T08:29:06.729Z,19712
2018-02-25T08:30:16.796Z,18432
2018-02-25T08:31:26.502Z,18560
2018-02-25T08:32:36.471Z,18560
2018-02-25T08:33:45.912Z,18688
2018-02-25T08:34:55.349Z,17856
2018-02-25T08:36:05.052Z,17216
2018-02-25T08:37:14.755Z,18816
2018-02-25T08:38:24.712Z,19776
2018-02-25T08:39:34.427Z,20928
2018-02-25T08:40:44.141Z,18976
2018-02-25T08:41:54.133Z,19488
2018-02-25T08:43:04.120Z,20704
2018-02-25T08:44:13.814Z,17640
2018-02-25T08:45:23.771Z,20672
2018-02-25T08:46:33.481Z,20448
2018-02-25T08:47:43.184Z,20992
2018-02-25T08:48:53.157Z,18784
2018-02-25T08:50:02.607Z,23072
2018-02-25T08:51:12.563Z,22784
2018-02-25T08:52:22.517Z,22528
2018-02-25T08:53:32.225Z,23168
2018-02-25T08:54:42.176Z,23616
2018-02-25T08:55:52.138Z,24032
2018-02-25T08:57:01.857Z,24832
2018-02-25T08:58:11.820Z,24960
2018-02-25T08:59:21.781Z,25344
2018-02-25T09:00:31.496Z,25440
2018-02-25T09:01:41.467Z,26048
2018-02-25T09:02:51.179Z,26176
2018-02-25T09:04:00.633Z,26368
2018-02-25T09:05:10.592Z,26272
2018-02-25T09:06:20.303Z,26528
2018-02-25T09:07:30.018Z,27168
2018-02-25T09:08:39.469Z,28320
2018-02-25T09:09:48.913Z,27680
2018-02-25T09:10:58.620Z,27584
2018-02-25T09:12:08.576Z,28224
2018-02-25T09:13:18.541Z,28256
2018-02-25T09:14:28.251Z,28416
2018-02-25T09:15:38.230Z,28576
2018-02-25T09:16:47.945Z,29504
2018-02-25T09:17:57.412Z,29984
2018-02-25T09:19:07.107Z,30176
2018-02-25T09:20:17.215Z,30144
2018-02-25T09:21:26.691Z,30784
2018-02-25T09:22:36.716Z,32640
2018-02-25T09:23:46.160Z,30336
2018-02-25T09:24:56.136Z,41312
2018-02-25T09:26:05.854Z,40832
2018-02-25T09:27:15.836Z,39264
2018-02-25T09:28:25.578Z,42720
2018-02-25T09:29:35.294Z,44096
2018-02-25T09:30:45.006Z,45152
2018-02-25T09:31:54.712Z,46432
2018-02-25T09:33:04.152Z,46560
2018-02-25T09:34:13.846Z,49120
2018-02-25T09:35:23.818Z,49440
2018-02-25T09:36:33.519Z,50848
2018-02-25T09:37:43.241Z,50816
2018-02-25T09:38:53.212Z,53536
2018-02-25T09:40:02.951Z,53632
2018-02-25T09:41:12.923Z,56320
2018-02-25T09:42:22.648Z,55168
2018-02-25T09:43:32.804Z,51712
2018-02-25T09:44:42.769Z,54464
2018-02-25T09:45:52.757Z,53984
2018-02-25T09:47:01.992Z,51936
2018-02-25T09:48:11.438Z,61024
2018-02-25T09:49:21.159Z,58336
2018-02-25T09:50:30.627Z,59936
2018-02-25T09:51:40.622Z,59584
2018-02-25T09:52:50.351Z,60864
2018-02-25T09:54:00.062Z,62400
2018-02-25T09:55:09.774Z,62336
2018-02-25T09:56:19.481Z,63264
2018-02-25T09:57:29.458Z,64448
2018-02-25T09:58:38.926Z,66304
2018-02-25T09:59:48.129Z,64736
2018-02-25T10:00:57.847Z,64832
2018-02-25T10:02:07.309Z,65632
2018-02-25T10:03:17.282Z,68192
2018-02-25T10:04:26.987Z,69184
2018-02-25T10:05:36.969Z,71584
2018-02-25T10:06:46.928Z,70784
2018-02-25T10:07:56.938Z,66592
2018-02-25T10:09:06.731Z,68032
2018-02-25T10:10:16.179Z,71968
2018-02-25T10:11:25.902Z,74528
2018-02-25T10:12:35.879Z,75488
2018-02-25T10:13:45.869Z,70496
2018-02-25T10:14:55.588Z,77248
2018-02-25T10:16:05.041Z,79072
2018-02-25T10:17:15.035Z,78496
2018-02-25T10:18:24.994Z,60672
2018-02-25T10:19:34.493Z,67488
2018-02-25T10:20:44.219Z,54688
2018-02-25T10:21:54.184Z,69504
2018-02-25T10:23:03.899Z,62528
2018-02-25T10:24:13.600Z,66880
2018-02-25T10:25:23.569Z,64384
2018-02-25T10:26:33.278Z,60576
2018-02-25T10:27:42.765Z,70176
2018-02-25T10:28:52.471Z,65696
2018-02-25T10:30:02.451Z,76672
2018-02-25T10:31:12.432Z,75296
2018-02-25T10:32:22.133Z,69824
2018-02-25T10:33:31.848Z,64544
2018-02-25T10:34:41.814Z,95296
2018-02-25T10:35:51.784Z,67872
2018-02-25T10:37:01.767Z,71456
2018-02-25T10:38:11.746Z,63008
2018-02-25T10:39:21.195Z,92608
2018-02-25T10:40:31.232Z,88064
2018-02-25T10:41:41.200Z,68064
2018-02-25T10:42:50.932Z,83424
2018-02-25T10:44:00.652Z,85280
2018-02-25T10:45:10.630Z,87168
2018-02-25T10:46:20.390Z,66848
2018-02-25T10:47:30.091Z,91008
2018-02-25T10:48:39.535Z,66304
2018-02-25T10:49:49.514Z,78912
2018-02-25T10:50:58.974Z,103232
2018-02-25T10:52:08.435Z,89088
2018-02-25T10:53:18.149Z,93152
2018-02-25T10:54:28.209Z,96992
2018-02-25T10:55:37.933Z,98656
2018-02-25T10:56:47.389Z,103328
2018-02-25T10:57:57.357Z,89440
2018-02-25T10:59:07.091Z,98432
2018-02-25T11:00:17.090Z,89664
2018-02-25T11:01:26.292Z,95776
2018-02-25T11:02:36.278Z,106496
2018-02-25T11:03:45.997Z,99712
2018-02-25T11:04:55.720Z,104480
2018-02-25T11:06:05.441Z,104000
2018-02-25T11:07:15.426Z,100128
2018-02-25T11:08:25.151Z,102016
2018-02-25T11:09:35.137Z,102208
2018-02-25T11:10:44.838Z,97888
2018-02-25T11:11:54.551Z,101600
2018-02-25T11:13:04.532Z,94720
2018-02-25T11:14:13.978Z,100608
2018-02-25T11:15:24.016Z,95904
2018-02-25T11:16:34.093Z,102016
2018-02-25T11:17:43.795Z,95008
2018-02-25T11:18:53.775Z,105600
2018-02-25T11:20:03.506Z,95136
2018-02-25T11:21:12.972Z,99040
2018-02-25T11:22:22.721Z,98176
2018-02-25T11:23:32.443Z,97888
2018-02-25T11:24:41.898Z,103040
2018-02-25T11:25:51.608Z,101696
2018-02-25T11:27:01.587Z,98816
2018-02-25T11:28:11.572Z,103008
2018-02-25T11:29:21.293Z,98912
2018-02-25T11:30:31.024Z,93760
2018-02-25T11:31:41.127Z,95232
2018-02-25T11:32:50.959Z,90912
2018-02-25T11:34:00.663Z,89888
2018-02-25T11:35:10.374Z,93280
2018-02-25T11:36:20.363Z,89280
2018-02-25T11:37:30.077Z,83392
2018-02-25T11:38:39.787Z,91680
2018-02-25T11:39:49.764Z,92768
2018-02-25T11:40:59.735Z,60224
2018-02-25T11:42:09.466Z,91456
2018-02-25T11:43:19.229Z,83040
2018-02-25T11:44:29.236Z,106112
2018-02-25T11:45:38.431Z,131488
2018-02-25T11:46:48.143Z,111200
2018-02-25T11:47:58.129Z,114784
2018-02-25T11:49:07.328Z,95840
2018-02-25T11:50:17.307Z,91584
2018-02-25T11:51:27.276Z,101280
2018-02-25T11:52:36.733Z,97984
2018-02-25T11:53:46.483Z,103200
2018-02-25T11:54:56.195Z,106208
2018-02-25T11:56:06.164Z,101536
2018-02-25T11:57:15.627Z,104480
2018-02-25T11:58:25.357Z,110240
2018-02-25T11:59:35.066Z,97728
2018-02-25T12:00:45.044Z,105152
2018-02-25T12:01:55.019Z,104256
2018-02-25T12:03:04.748Z,102368
2018-02-25T12:04:14.472Z,101888
2018-02-25T12:05:24.190Z,109664
2018-02-25T12:06:33.649Z,105184
2018-02-25T12:07:43.633Z,112192
2018-02-25T12:08:53.342Z,110592
2018-02-25T12:10:03.392Z,110144
2018-02-25T12:11:13.154Z,115488
2018-02-25T12:12:23.149Z,117728
2018-02-25T12:13:32.869Z,117696
2018-02-25T12:14:42.837Z,76672
2018-02-25T12:15:52.563Z,102912
2018-02-25T12:17:02.271Z,110272
2018-02-25T12:18:12.001Z,110496
2018-02-25T12:19:21.724Z,112928
2018-02-25T12:20:31.503Z,110304
2018-02-25T12:21:40.790Z,106240
2018-02-25T12:22:50.537Z,106176
2018-02-25T12:24:00.259Z,105376
2018-02-25T12:25:09.978Z,103488
2018-02-25T12:26:19.189Z,106912
2018-02-25T12:27:28.923Z,109664
2018-02-25T12:28:38.896Z,112704
2018-02-25T12:29:48.618Z,112160
2018-02-25T12:30:58.609Z,108992
2018-02-25T12:32:08.614Z,110528
2018-02-25T12:33:18.325Z,117984
2018-02-25T12:34:28.300Z,110144
2018-02-25T12:35:38.016Z,105664
2018-02-25T12:36:48.003Z,116896
2018-02-25T12:37:57.981Z,96832
2018-02-25T12:39:07.902Z,42656
2018-02-25T12:40:17.897Z,94656
2018-02-25T12:41:27.894Z,63424
2018-02-25T12:42:37.086Z,108032
2018-02-25T12:43:46.802Z,41792
2018-02-25T12:44:56.532Z,42624
2018-02-25T12:46:06.252Z,25792
2018-02-25T12:47:16.236Z,42944
2018-02-25T12:48:25.711Z,23648
2018-02-25T12:49:35.421Z,25056
2018-02-25T12:50:45.131Z,110208
2018-02-25T12:51:54.320Z,105792
2018-02-25T12:53:04.026Z,108640
2018-02-25T12:54:13.486Z,113696
2018-02-25T12:55:23.479Z,108672
2018-02-25T12:56:33.210Z,82240
2018-02-25T12:57:43.187Z,112224
2018-02-25T12:58:53.234Z,117184
2018-02-25T13:00:02.946Z,113952
2018-02-25T13:01:12.666Z,117888
2018-02-25T13:02:22.633Z,110784
2018-02-25T13:03:32.412Z,100288
2018-02-25T13:04:42.138Z,79712
2018-02-25T13:05:52.086Z,99008
2018-02-25T13:07:02.058Z,105408
2018-02-25T13:08:12.043Z,42368
2018-02-25T13:09:21.769Z,111296
2018-02-25T13:10:31.233Z,101088
2018-02-25T13:11:41.213Z,99008
2018-02-25T13:12:50.921Z,110048
2018-02-25T13:14:00.905Z,106880
2018-02-25T13:15:10.643Z,103616
2018-02-25T13:16:20.626Z,88512
2018-02-25T13:17:30.591Z,89952
2018-02-25T13:18:40.573Z,32640
2018-02-25T13:19:50.561Z,24128
2018-02-25T13:21:00.032Z,50784
2018-02-25T13:22:10.017Z,28672
2018-02-25T13:23:19.995Z,65536
2018-02-25T13:24:29.801Z,104224
2018-02-25T13:25:39.569Z,100032
2018-02-25T13:26:49.546Z,90048
2018-02-25T13:27:59.520Z,22528
2018-02-25T13:29:09.497Z,97312
2018-02-25T13:30:19.199Z,103040
2018-02-25T13:31:29.177Z,104928
2018-02-25T13:32:39.158Z,72992
2018-02-25T13:33:48.871Z,95488
2018-02-25T13:34:58.575Z,102080
2018-02-25T13:36:08.553Z,86464
2018-02-25T13:37:18.524Z,90272
2018-02-25T13:38:28.509Z,73664
2018-02-25T13:39:38.235Z,98496
2018-02-25T13:40:48.215Z,97280
2018-02-25T13:41:57.929Z,94464
2018-02-25T13:43:07.667Z,89600
2018-02-25T13:44:17.391Z,85952
2018-02-25T13:45:27.095Z,87072
2018-02-25T13:46:36.548Z,83648
2018-02-25T13:47:46.260Z,85120
2018-02-25T13:48:55.203Z,49792
2018-02-25T13:50:04.918Z,36320
2018-02-25T13:51:14.382Z,27392
2018-02-25T13:52:24.133Z,30848
2018-02-25T13:53:34.096Z,52000
2018-02-25T13:54:43.814Z,43104
2018-02-25T13:55:53.266Z,42528
2018-02-25T13:57:03.000Z,65888
2018-02-25T13:58:12.745Z,36032
2018-02-25T13:59:22.251Z,94528
2018-02-25T14:00:31.953Z,87936
2018-02-25T14:01:41.952Z,98304
2018-02-25T14:02:51.929Z,95424
2018-02-25T14:04:01.902Z,94464
2018-02-25T14:05:11.867Z,90592
2018-02-25T14:06:21.584Z,82560
2018-02-25T14:07:31.559Z,86400
2018-02-25T14:08:41.286Z,85952
2018-02-25T14:09:50.996Z,93024
2018-02-25T14:11:00.713Z,92064
2018-02-25T14:12:10.695Z,89504
2018-02-25T14:13:20.677Z,68864
2018-02-25T14:14:30.425Z,45600
2018-02-25T14:15:40.136Z,65184
2018-02-25T14:16:49.581Z,84224
2018-02-25T14:17:59.026Z,81632
2018-02-25T14:19:08.752Z,64544
2018-02-25T14:20:18.720Z,43808
2018-02-25T14:21:28.678Z,26944
2018-02-25T14:22:38.667Z,85664
2018-02-25T14:23:48.128Z,88320
2018-02-25T14:24:57.863Z,34752
2018-02-25T14:26:07.831Z,81472
2018-02-25T14:27:17.287Z,77856
2018-02-25T14:28:26.997Z,62368
2018-02-25T14:29:36.710Z,27264
2018-02-25T14:30:46.414Z,58528
2018-02-25T14:31:56.376Z,28768
2018-02-25T14:33:06.076Z,33280
2018-02-25T14:34:15.844Z,35168
2018-02-25T14:35:25.822Z,26368
2018-02-25T14:36:35.015Z,30912
2018-02-25T14:37:44.727Z,53280
2018-02-25T14:38:54.181Z,25408
2018-02-25T14:40:04.138Z,23904
2018-02-25T14:41:14.113Z,23488
2018-02-25T14:42:23.556Z,22880
2018-02-25T14:43:33.980Z,22080
2018-02-25T14:44:43.708Z,21664
2018-02-25T14:45:53.693Z,21408
2018-02-25T14:47:03.653Z,20800
2018-02-25T14:48:13.373Z,20512
2018-02-25T14:49:23.354Z,23104
2018-02-25T14:50:33.071Z,26336
2018-02-25T14:51:42.780Z,41568
2018-02-25T14:52:52.743Z,48480
2018-02-25T14:54:02.721Z,51744
2018-02-25T14:55:12.167Z,45856
2018-02-25T14:56:21.888Z,22240
2018-02-25T14:57:31.870Z,20736
2018-02-25T14:58:41.589Z,21120
2018-02-25T14:59:51.576Z,25984
2018-02-25T15:01:01.547Z,54400
2018-02-25T15:02:11.512Z,37888
2018-02-25T15:03:20.952Z,24928
2018-02-25T15:04:30.669Z,16192
2018-02-25T15:05:40.660Z,14876
2018-02-25T15:06:50.386Z,14124
2018-02-25T15:08:00.359Z,13740
2018-02-25T15:09:10.335Z,13800
2018-02-25T15:10:19.801Z,28768
2018-02-25T15:11:29.554Z,47872
2018-02-25T15:12:39.279Z,50560
2018-02-25T15:13:49.004Z,47200
2018-02-25T15:14:58.730Z,39872
2018-02-25T15:16:08.707Z,40736
2018-02-25T15:17:18.165Z,13128
2018-02-25T15:18:28.131Z,39808
2018-02-25T15:19:38.124Z,41248
2018-02-25T15:20:47.843Z,43072
2018-02-25T15:21:57.573Z,39392
2018-02-25T15:23:07.550Z,22208
2018-02-25T15:24:17.264Z,27328
2018-02-25T15:25:26.969Z,9744
2018-02-25T15:26:36.939Z,9424
2018-02-25T15:27:46.650Z,9208
2018-02-25T15:28:56.621Z,8744
2018-02-25T15:30:06.359Z,8372
2018-02-25T15:31:16.336Z,8088
2018-02-25T15:32:25.274Z,7904
2018-02-25T15:33:35.250Z,7896
2018-02-25T15:34:45.217Z,7824
2018-02-25T15:35:55.292Z,7856
2018-02-25T15:37:04.997Z,7888
2018-02-25T15:38:14.712Z,7988
2018-02-25T15:39:24.428Z,7932
2018-02-25T15:40:33.878Z,8160
2018-02-25T15:41:43.863Z,7812
2018-02-25T15:42:53.582Z,10132
2018-02-25T15:44:02.784Z,7312
2018-02-25T15:45:12.628Z,7276
2018-02-25T15:46:22.616Z,7280